Aleksandrovskoe, Russia
Current Conditions -  °F | °C
As of 12:30 PM on Friday 31 Oct 2014 (Local Time) from USNN Reporting Station
Overcast Overcast  
Wind Chill: 32°   Ceiling: 2000
Heat Index: 36°   Visibility: 6mi
Dew Point: 32°   Wind: 4mph
Humidity: 87%   Direction: 250°WSW
Pressure: 29.83"   Gusts: NA
Location:  60.43°N, 77.87°E
Report Text: USNN 310530Z 25002MPS 9999 OVC020 02/00 Q1010 NOSIG RMK QFE7532139//34
Loading
Personal Weather Stations






























Interactive Weather Map
Tropical Storm Tracking
New forecast layout! Learn more

10-Day Weather Forecast

Advertisements
Track Severe Weather on mobile